Date,TemperatureHighF,TemperatureAvgF,TemperatureLowF,DewpointHighF,DewpointAvgF,DewpointLowF,HumidityHigh,HumidityAvg,HumidityLow,PressureMaxIn,PressureMinIn,WindSpeedMaxMPH,WindSpeedAvgMPH,GustSpeedMaxMPH,PrecipitationSumIn
2014-1-1,68,56,47,58,50,38,96,82,65,30.19,29.94,1,0,7,0.00
2014-1-2,59,46,36,58,32,23,98,61,36,30.36,29.98,9,4,19,0.01
2014-1-3,55,42,29,36,28,23,88,60,32,30.39,30.11,3,0,10,0.00
2014-1-4,68,57,39,59,50,36,93,78,61,30.11,29.78,4,1,12,0.00
2014-1-5,64,50,36,63,40,20,98,69,44,30.28,29.73,10,4,22,0.02
2014-1-6,36,31,26,21,12,5,64,46,28,30.62,30.29,7,3,18,0.00
2014-1-7,47,36,24,33,19,9,72,53,28,30.57,30.31,5,1,11,0.00
2014-1-8,55,52,43,54,48,33,98,87,68,30.31,30.07,7,3,15,0.07
2014-1-9,67,62,55,66,60,54,100,94,86,30.10,29.95,3,0,9,0.35
2014-1-10,70,66,59,66,62,58,97,90,76,29.97,29.71,4,1,15,0.01
2014-1-11,73,62,44,64,47,31,99,66,22,30.06,29.77,6,1,12,0.01
2014-1-12,75,57,38,60,46,35,98,71,26,30.06,29.86,4,1,16,0.00
2014-1-13,69,61,42,65,46,25,100,65,21,30.06,29.75,10,2,19,0.16
2014-1-14,70,53,35,42,35,29,95,59,23,30.14,29.97,5,0,10,0.00
2014-1-15,59,49,40,38,29,20,75,48,25,30.35,30.12,6,2,13,0.00
2014-1-16,69,52,36,46,40,30,94,67,37,30.12,29.98,5,1,11,0.00
2014-1-17,63,53,39,43,26,16,79,40,18,30.25,30.08,5,1,12,0.00
2014-1-18,69,51,34,49,39,27,91,66,32,30.19,30.03,3,0,9,0.00
2014-1-19,69,55,42,54,40,27,100,66,22,30.23,30.06,3,0,9,0.00
2014-1-20,77,58,42,60,51,36,100,80,45,30.06,29.80,5,1,13,0.00
2014-1-21,61,54,37,57,28,19,93,39,24,30.26,29.94,9,4,17,0.00
2014-1-22,70,50,31,49,34,26,85,59,27,30.16,29.96,3,0,8,0.00
2014-1-23,58,48,34,55,45,32,95,90,83,30.51,29.98,8,2,20,0.56
2014-1-24,35,32,28,32,26,22,96,80,63,30.60,30.30,6,2,16,0.09
2014-1-25,60,43,28,40,33,25,88,69,41,30.30,29.96,3,0,9,0.00
2014-1-26,70,57,44,59,48,38,94,73,43,29.95,29.68,4,1,16,0.00
2014-1-27,61,55,44,60,44,21,98,69,40,30.08,29.70,7,3,16,0.00
2014-1-28,44,35,30,28,22,17,85,60,39,30.35,30.06,6,3,16,0.01
2014-1-29,44,35,29,22,17,10,71,50,26,30.43,30.23,2,0,8,0.00
2014-1-30,60,47,26,52,39,18,87,72,60,30.24,29.88,5,1,16,0.00
2014-1-31,74,63,53,62,58,52,98,84,63,29.92,29.80,5,1,13,0.00
2014-2-1,76,68,63,66,63,60,97,85,65,29.81,29.73,4,2,16,0.00
2014-2-2,67,50,39,67,48,36,100,95,87,30.09,29.76,9,4,19,0.06
2014-2-3,49,43,38,44,39,35,94,86,78,30.14,29.92,5,2,14,0.01
2014-2-4,53,47,41,48,45,40,98,93,82,29.99,29.78,5,2,11,0.06
2014-2-5,50,42,38,43,34,26,99,75,48,30.32,29.99,8,3,15,0.02
2014-2-6,38,35,32,27,25,23,70,66,60,30.37,30.25,6,3,14,0.00
2014-2-7,39,37,34,36,31,25,92,79,67,30.28,30.12,4,1,8,0.07
2014-2-8,54,46,38,47,42,36,94,86,74,30.16,30.02,1,0,4,0.00
2014-2-9,68,56,48,60,54,47,100,91,72,30.06,29.90,3,0,9,0.01
2014-2-10,60,51,40,60,51,38,100,98,94,30.05,29.91,5,2,12,0.49
2014-2-11,41,37,34,38,34,32,96,89,74,30.14,30.02,6,4,13,0.11
2014-2-12,50,40,33,35,33,30,96,78,49,30.11,29.98,7,3,15,0.00
2014-2-13,62,47,31,44,37,29,98,73,44,30.03,29.88,2,0,8,0.00
2014-2-14,78,59,41,59,47,40,100,70,35,29.98,29.74,6,2,15,0.00
2014-2-15,69,56,42,51,38,28,83,55,24,30.09,29.98,5,1,13,0.00
2014-2-16,76,66,58,64,59,51,94,79,56,30.01,29.91,4,1,11,0.00
2014-2-17,79,70,64,65,63,62,93,80,58,30.02,29.87,5,1,14,0.00
2014-2-18,80,70,65,68,64,61,100,83,53,30.02,29.87,4,1,12,0.00
2014-2-19,80,70,62,67,64,61,98,82,57,29.90,29.73,5,2,14,0.00
2014-2-20,78,70,58,70,62,37,98,79,40,29.99,29.69,7,2,15,0.38
2014-2-21,68,57,44,40,34,27,79,45,22,30.11,29.98,4,1,12,0.00
2014-2-22,71,59,46,57,50,39,86,73,51,30.01,29.84,4,1,12,0.00
2014-2-23,77,67,60,69,63,56,100,89,66,29.92,29.81,1,0,5,0.04
2014-2-24,68,64,60,65,62,58,98,93,87,30.03,29.90,4,0,11,0.00
2014-2-25,80,69,60,70,65,60,100,88,61,29.97,29.81,5,0,8,0.13
2014-2-26,60,46,37,60,42,34,98,87,65,30.11,29.85,7,4,18,0.63
2014-2-27,57,44,33,38,32,26,88,64,37,30.11,29.89,2,0,9,0.00
2014-2-28,74,60,41,64,55,37,96,85,68,29.89,29.72,6,1,16,0.00
2014-3-1,82,72,66,69,66,64,98,82,56,29.95,29.83,5,1,13,0.00
2014-3-2,75,60,32,70,56,28,97,88,69,30.08,29.81,10,3,19,0.05
2014-3-3,42,32,26,28,25,21,88,73,55,30.25,30.08,9,5,20,0.12
2014-3-4,39,35,31,37,33,27,98,94,87,30.19,29.97,1,0,5,0.99
2014-3-5,56,46,38,49,43,36,98,89,73,30.03,29.90,3,0,6,0.03
2014-3-6,58,51,44,46,42,38,95,74,53,30.11,29.98,7,2,14,0.01
2014-3-7,69,53,38,51,44,36,98,74,46,30.03,29.85,5,1,12,0.00
2014-3-8,70,61,52,60,55,50,97,83,69,30.10,29.84,5,1,12,0.52
2014-3-9,57,50,44,51,48,44,99,92,80,30.21,30.08,6,2,13,0.55
2014-3-10,73,60,49,59,53,47,95,80,57,30.14,29.83,1,0,8,0.00
2014-3-11,74,64,57,60,58,54,97,82,61,29.84,29.57,4,1,9,0.00
2014-3-12,67,60,51,60,42,28,98,55,26,30.16,29.63,10,5,22,0.00
2014-3-13,68,54,39,44,36,30,83,53,25,30.26,30.09,4,0,12,0.00
2014-3-14,75,62,49,60,53,44,95,74,52,30.09,29.91,4,1,11,0.00
2014-3-15,70,67,64,68,65,60,100,95,86,29.94,29.64,4,1,10,0.27
2014-3-16,69,61,45,68,55,36,100,83,60,29.91,29.60,11,4,24,0.07
2014-3-17,63,50,43,44,39,34,81,65,46,29.92,29.74,8,3,15,0.00
2014-3-18,78,62,45,58,52,42,95,72,43,29.79,29.67,5,2,15,0.00
2014-3-19,74,65,58,61,55,45,97,72,49,30.06,29.78,5,1,10,0.00
2014-3-20,78,66,57,51,45,41,74,49,32,30.12,29.96,2,0,7,0.00
2014-3-21,80,66,53,65,59,50,100,79,48,29.98,29.81,5,1,15,0.00
2014-3-22,84,73,66,71,67,63,97,83,57,29.92,29.81,3,0,10,0.00
2014-3-23,71,61,54,68,56,50,98,86,73,30.11,29.90,8,3,19,0.27
2014-3-24,62,56,52,53,48,43,93,77,64,30.10,29.92,2,0,8,0.01
2014-3-25,70,59,47,51,43,32,94,60,27,30.22,30.03,7,1,13,0.00
2014-3-26,66,58,51,57,50,39,95,76,54,30.14,29.93,8,3,18,0.19
2014-3-27,72,68,61,71,65,57,99,92,86,29.92,29.69,5,2,13,0.01
2014-3-28,86,74,61,71,69,60,100,85,56,29.84,29.63,3,0,10,0.16
2014-3-29,79,64,53,60,50,39,96,65,27,30.12,29.85,7,2,12,0.01
2014-3-30,75,61,48,56,47,42,92,63,34,30.17,30.00,6,2,13,0.00
2014-3-31,80,67,55,64,59,50,97,77,51,29.99,29.84,5,2,15,0.00
2014-4-1,86,73,66,71,68,64,99,85,55,29.92,29.82,5,1,14,0.00
2014-4-2,84,75,71,71,70,68,96,84,61,29.84,29.71,7,3,21,0.00
2014-4-3,78,74,72,73,70,67,95,87,79,29.76,29.64,5,2,15,0.00
2014-4-4,76,69,60,73,50,35,98,57,23,30.00,29.70,9,3,19,0.00
2014-4-5,71,64,55,55,45,39,69,51,39,29.95,29.76,6,1,11,0.00
2014-4-6,65,60,56,64,59,53,100,95,72,29.78,29.56,6,2,12,0.06
2014-4-7,73,63,52,55,52,48,89,69,50,29.92,29.72,5,2,12,0.00
2014-4-8,73,62,50,54,43,30,93,58,22,30.11,29.88,11,3,24,0.00
2014-4-9,83,64,45,52,44,38,93,55,23,30.19,30.04,1,0,9,0.00
2014-4-10,84,69,58,62,57,51,95,68,36,30.08,29.93,5,2,18,0.00
2014-4-11,84,71,61,64,61,59,97,74,46,30.00,29.90,4,1,17,0.00
2014-4-12,83,72,64,68,65,63,97,80,53,29.95,29.82,6,2,17,0.00
2014-4-13,80,74,68,72,69,65,92,85,62,29.83,29.61,5,2,13,0.01
2014-4-14,76,61,47,72,56,38,100,85,65,30.09,29.61,11,4,24,0.74
2014-4-15,64,52,40,40,32,20,82,51,24,30.22,30.07,8,2,16,0.00
2014-4-16,69,56,40,53,45,38,93,69,46,30.09,29.92,5,1,13,0.00
2014-4-17,71,62,58,60,56,53,87,80,65,30.06,29.92,6,1,14,0.00
2014-4-18,80,68,57,58,55,53,91,65,40,30.10,29.98,4,0,12,0.00
2014-4-19,83,69,55,63,58,53,98,72,40,30.10,29.98,3,0,9,0.00
2014-4-20,82,71,64,64,60,51,97,71,35,30.09,29.97,4,1,11,0.00
2014-4-21,83,72,63,67,65,62,100,80,57,30.02,29.87,2,0,10,0.00
2014-4-22,86,74,65,69,66,62,98,79,46,29.92,29.79,1,0,7,0.00
2014-4-23,87,73,64,70,66,62,100,82,45,29.89,29.73,4,1,13,0.00
2014-4-24,85,75,67,68,67,65,97,77,52,29.83,29.72,3,1,10,0.00
2014-4-25,88,77,69,70,67,64,97,76,46,29.92,29.79,4,0,10,0.00
2014-4-26,84,75,69,72,69,64,97,82,56,29.84,29.64,4,1,13,0.00
2014-4-27,90,79,74,73,71,68,88,77,50,29.65,29.44,6,3,17,0.00
2014-4-28,92,80,69,72,60,38,89,58,16,29.59,29.47,4,1,12,0.00
2014-4-29,83,74,67,71,58,41,100,63,26,29.84,29.51,8,2,16,0.00
2014-4-30,74,66,58,44,41,34,55,41,30,30.05,29.84,7,2,17,0.00
2014-5-1,76,64,49,49,42,33,86,49,21,30.07,29.93,3,0,10,0.00
2014-5-2,80,67,52,50,45,38,84,49,23,30.01,29.87,2,0,7,0.00
2014-5-3,90,72,56,55,49,38,90,50,16,30.01,29.92,4,1,12,0.00
2014-5-4,89,73,56,60,52,42,93,54,23,30.04,29.94,3,1,13,0.00
2014-5-5,86,72,56,63,58,55,96,67,37,29.98,29.81,4,1,15,0.00
2014-5-6,85,74,64,66,63,60,92,70,47,29.85,29.73,5,2,15,0.00
2014-5-7,85,75,66,72,68,63,97,80,57,29.84,29.75,6,2,16,0.00
2014-5-8,78,76,74,74,72,71,97,89,80,29.83,29.76,6,2,14,0.03
2014-5-9,86,75,65,75,70,61,100,86,60,29.95,29.72,7,1,13,0.61
2014-5-10,88,75,64,74,69,62,98,82,57,29.86,29.73,5,1,13,0.01
2014-5-11,89,80,75,74,72,69,92,79,55,29.80,29.67,5,2,15,0.00
2014-5-12,85,78,75,76,74,72,98,86,69,29.83,29.73,6,2,15,0.06
2014-5-13,76,67,63,73,64,57,100,89,77,30.05,29.83,8,3,19,2.82
2014-5-14,72,63,55,59,51,44,95,68,39,30.16,30.02,8,4,22,0.16
2014-5-15,81,66,49,57,48,40,98,59,26,30.23,30.06,2,0,8,0.00
2014-5-16,85,71,59,60,53,37,92,58,23,30.10,29.95,5,1,15,0.00
2014-5-17,86,73,60,65,60,49,92,67,29,29.99,29.90,5,1,16,0.00
2014-5-18,86,74,64,67,63,58,98,71,40,30.03,29.95,3,1,11,0.00
2014-5-19,87,76,67,69,66,60,99,75,41,30.01,29.95,5,1,13,0.00
2014-5-20,88,78,71,70,68,64,93,73,47,30.01,29.94,4,1,14,0.00
2014-5-21,89,78,69,72,67,61,100,74,40,30.03,29.95,4,1,13,0.00
2014-5-22,90,78,69,73,68,63,100,74,44,30.04,29.95,3,1,10,0.00
2014-5-23,88,77,69,73,68,63,100,74,44,30.02,29.92,3,1,11,0.00
2014-5-24,89,78,68,71,68,66,99,74,49,29.98,29.86,4,0,9,0.00
2014-5-25,89,79,71,71,68,64,97,73,44,29.97,29.86,4,1,10,0.00
2014-5-26,78,72,66,74,71,66,100,95,85,29.96,29.87,7,1,14,3.34
2014-5-27,76,71,64,72,32,-100,100,72,77,29.95,29.79,6,0,8,1.36
2014-5-28,85,75,68,74,58,-100,100,76,55,29.81,29.71,6,0,14,1.73
2014-5-29,89,78,67,71,68,64,100,74,45,29.78,29.70,4,0,10,0.00
2014-5-30,94,80,72,74,71,66,100,76,40,29.76,29.68,4,0,9,1.15
2014-5-31,89,78,73,77,73,71,100,87,57,29.81,29.75,3,0,9,0.11
2014-6-1,91,80,71,75,72,69,100,77,50,29.85,29.78,2,0,10,0.00
2014-6-2,90,81,74,76,73,70,98,77,54,29.89,29.82,3,0,9,0.00
2014-6-3,89,80,73,76,73,71,99,80,59,29.92,29.83,2,0,11,0.00
2014-6-4,93,82,72,76,73,71,100,77,52,29.85,29.75,3,0,10,0.00
2014-6-5,93,82,74,75,73,70,97,76,50,29.81,29.73,3,0,13,0.00
2014-6-6,93,83,74,77,73,71,100,76,51,29.88,29.78,2,0,10,0.01
2014-6-7,95,84,74,77,74,70,100,74,47,29.89,29.79,1,0,9,0.00
2014-6-8,94,83,75,76,73,68,96,74,44,29.89,29.73,3,0,11,0.00
2014-6-9,89,80,72,77,74,70,99,84,60,29.81,29.69,5,1,17,0.45
2014-6-10,89,81,73,76,68,58,92,67,38,29.79,29.69,4,1,14,0.00
2014-6-11,96,82,67,77,70,66,100,73,42,29.83,29.71,1,0,9,0.00
2014-6-12,96,85,77,77,75,73,96,76,48,29.82,29.70,4,0,10,0.00
2014-6-13,95,84,75,77,72,66,91,70,41,29.89,29.78,4,0,10,0.01
2014-6-14,96,83,73,76,72,69,97,73,45,29.90,29.78,4,1,10,0.00
2014-6-15,95,84,75,76,74,70,96,73,46,29.90,29.78,3,1,14,0.00
2014-6-16,94,84,77,76,74,69,94,72,45,29.98,29.88,4,1,12,0.00
2014-6-17,95,85,79,78,74,69,93,72,45,29.97,29.87,4,1,13,0.00
2014-6-18,95,84,78,77,74,69,90,72,47,29.94,29.87,4,1,14,0.00
2014-6-19,97,84,76,75,72,65,91,69,36,29.98,29.89,3,0,11,0.00
2014-6-20,91,82,74,76,72,69,94,74,52,30.02,29.91,5,0,11,0.04
2014-6-21,93,82,73,76,73,71,99,76,50,29.97,29.84,2,0,8,0.00
2014-6-22,94,83,77,77,73,67,92,74,42,29.89,29.78,3,0,8,0.00
2014-6-23,90,80,74,76,74,70,98,82,59,29.92,29.79,8,0,13,0.66
2014-6-24,91,78,72,78,75,70,99,89,57,29.98,29.90,5,0,12,0.32
2014-6-25,85,76,74,76,73,70,99,90,71,29.96,29.90,3,0,11,0.09
2014-6-26,86,77,72,77,72,70,100,87,71,29.93,29.85,5,0,12,0.09
2014-6-27,92,83,75,78,74,72,92,78,53,29.87,29.79,5,2,18,0.00
2014-6-28,92,84,77,80,76,74,93,80,59,29.92,29.82,5,2,20,0.04
2014-6-29,93,85,77,77,76,74,95,77,56,29.98,29.91,3,1,12,0.00
2014-6-30,95,84,76,77,75,70,97,75,46,29.96,29.86,3,1,11,0.00
2014-7-1,96,84,75,77,75,72,100,76,47,29.91,29.82,2,0,8,0.00
2014-7-2,98,82,73,77,73,69,99,77,43,29.97,29.90,5,0,13,0.17
2014-7-3,95,81,73,77,72,68,99,77,45,30.06,29.95,7,0,17,0.03
2014-7-4,93,80,72,73,71,68,94,75,46,30.10,30.00,4,0,9,0.02
2014-7-5,90,78,73,76,73,69,96,85,58,30.10,29.99,3,0,9,0.04
2014-7-6,93,82,72,77,74,70,100,79,49,30.01,29.89,2,0,9,0.00
2014-7-7,96,83,74,77,73,68,98,75,41,29.96,29.87,2,0,8,0.20
2014-7-8,94,84,74,77,74,67,99,74,47,29.98,29.89,2,0,8,0.00
2014-7-9,97,85,73,76,72,66,98,69,38,30.00,29.89,1,0,9,0.00
2014-7-10,94,83,74,78,72,66,98,72,44,30.01,29.91,3,0,12,0.00
2014-7-11,98,84,72,76,71,66,90,67,37,30.05,29.97,1,0,11,0.00
2014-7-12,98,84,73,76,73,68,98,71,40,30.09,29.96,1,0,8,0.00
2014-7-13,98,85,76,76,73,69,93,71,41,30.02,29.89,2,0,7,0.00
2014-7-14,97,84,76,80,74,70,90,74,43,29.96,29.84,2,0,8,0.04
2014-7-15,90,82,76,76,73,70,93,78,54,29.95,29.83,6,0,11,0.31
2014-7-16,93,81,75,77,73,66,97,77,50,29.92,29.81,5,0,14,0.00
2014-7-17,90,82,76,78,75,73,94,80,61,29.85,29.73,4,0,14,0.06
2014-7-18,88,82,78,79,75,72,96,80,61,29.87,29.75,3,0,8,0.01
2014-7-19,89,80,73,74,72,70,90,78,60,29.92,29.85,1,0,6,0.00
2014-7-20,95,83,74,78,75,72,95,78,52,29.93,29.84,4,0,9,0.00
2014-7-21,99,87,77,79,76,71,98,72,41,29.96,29.85,1,0,6,0.00
2014-7-22,97,86,77,79,75,72,98,74,47,29.97,29.87,2,0,7,0.03
2014-7-23,94,84,76,79,76,72,97,78,51,29.98,29.85,2,0,7,0.00
2014-7-24,95,83,75,76,74,71,91,75,48,29.95,29.84,5,0,10,0.09
2014-7-25,97,84,75,78,74,69,99,73,43,29.97,29.85,2,0,9,0.00
2014-7-26,97,86,76,78,75,72,98,73,45,29.98,29.88,3,0,13,0.00
2014-7-27,100,87,76,78,75,69,99,71,39,30.00,29.91,2,0,8,0.00
2014-7-28,99,87,75,78,74,66,98,68,35,30.05,29.91,1,0,7,0.00
2014-7-29,95,82,73,78,73,61,94,76,36,30.01,29.92,8,0,19,0.59
2014-7-30,96,83,73,77,74,70,100,76,43,29.97,29.85,3,0,10,0.01
2014-7-31,96,84,77,80,75,72,91,76,49,29.91,29.78,3,0,10,0.07
2014-8-1,88,80,74,76,72,69,99,78,56,29.91,29.83,4,0,9,0.54
2014-8-2,82,76,69,71,69,67,95,79,66,29.96,29.87,3,0,9,0.00
2014-8-3,90,80,71,73,70,67,98,74,47,29.94,29.83,2,0,8,0.00
2014-8-4,95,82,74,76,72,64,98,73,37,29.92,29.84,2,0,8,0.00
2014-8-5,94,84,75,77,74,71,97,74,49,29.97,29.89,4,0,10,0.00
2014-8-6,96,85,75,77,74,68,97,71,42,29.96,29.84,2,0,8,0.00
2014-8-7,99,87,76,78,75,71,96,71,42,29.91,29.77,3,0,12,0.00
2014-8-8,99,86,78,79,76,73,98,74,45,29.90,29.80,3,0,12,0.01
2014-8-9,99,84,77,80,76,67,99,78,36,29.95,29.84,4,0,8,0.33
2014-8-10,96,84,77,79,76,73,98,79,47,29.97,29.85,3,0,10,0.04
2014-8-11,100,84,74,79,74,69,99,78,40,29.96,29.83,6,0,10,0.87
2014-8-12,98,85,73,77,72,64,100,71,35,29.95,29.82,1,0,10,0.00
2014-8-13,95,85,74,74,69,62,88,62,35,29.95,29.85,1,0,8,0.00
2014-8-14,94,84,74,75,71,68,86,65,43,29.95,29.85,2,0,9,0.00
2014-8-15,98,86,76,78,74,69,95,71,40,29.94,29.79,3,0,11,0.00
2014-8-16,100,86,78,78,75,68,92,72,37,29.90,29.81,3,0,12,0.02
2014-8-17,100,87,78,79,75,68,97,70,36,29.92,29.81,3,0,12,0.00
2014-8-18,94,83,76,79,76,68,95,79,54,29.90,29.79,4,0,9,0.03
2014-8-19,98,85,76,79,74,70,99,73,42,29.88,29.77,3,0,14,0.00
2014-8-20,95,86,77,78,75,72,95,73,47,29.93,29.84,3,1,11,0.00
2014-8-21,99,87,78,80,75,69,98,72,39,30.00,29.91,3,1,12,0.00
2014-8-22,99,87,76,79,74,65,98,70,33,30.00,29.89,2,0,9,0.00
2014-8-23,99,86,74,78,73,68,97,69,38,29.95,29.82,2,0,12,0.00
2014-8-24,98,86,74,77,72,64,98,67,34,29.90,29.76,2,0,8,0.00
2014-8-25,99,86,74,78,73,68,95,67,39,29.88,29.76,4,0,12,0.00
2014-8-26,95,84,77,75,73,69,90,71,45,29.92,29.81,2,0,8,0.00
2014-8-27,94,83,75,75,72,67,89,71,44,29.92,29.84,3,0,13,0.00
2014-8-28,89,80,76,75,74,72,94,82,59,29.87,29.79,2,0,8,0.00
2014-8-29,89,80,75,79,75,72,98,86,65,29.82,29.73,5,0,10,0.44
2014-8-30,92,80,74,77,74,73,100,82,54,29.89,29.79,2,0,8,0.01
2014-8-31,82,78,74,76,74,73,99,89,75,29.96,29.86,1,0,6,0.10
2014-9-1,94,84,75,79,75,72,100,78,50,29.89,29.80,5,0,10,0.00
2014-9-2,95,85,77,78,75,72,98,76,48,29.90,29.83,3,1,12,0.00
2014-9-3,94,85,76,78,75,68,99,73,45,29.93,29.85,4,1,10,0.00
2014-9-4,93,83,76,79,76,68,98,80,54,29.97,29.87,4,0,9,0.36
2014-9-5,95,84,75,79,75,70,99,77,48,29.99,29.89,2,0,11,0.00
2014-9-6,97,84,76,79,75,71,99,78,44,29.97,29.86,5,0,11,0.02
2014-9-7,93,78,73,78,74,70,100,89,52,29.96,29.86,7,0,18,0.62
2014-9-8,94,82,72,77,73,70,100,79,49,29.95,29.84,0,0,5,0.01
2014-9-9,96,84,74,77,74,72,99,75,48,29.92,29.78,2,0,11,0.00
2014-9-10,96,84,76,78,75,72,97,76,49,29.82,29.73,3,0,10,0.00
2014-9-11,98,86,76,78,74,68,97,72,39,29.88,29.77,4,0,10,0.00
2014-9-12,87,80,76,79,76,74,98,89,69,29.95,29.83,2,0,7,0.79
2014-9-13,77,73,69,75,70,64,100,89,74,30.06,29.92,3,1,10,0.18
2014-9-14,78,70,66,69,65,64,97,82,70,30.10,30.00,2,0,6,0.00
2014-9-15,92,80,69,75,72,68,98,78,54,30.02,29.91,1,0,7,0.00
2014-9-16,91,80,76,78,76,74,99,88,60,29.98,29.88,2,0,6,0.09
2014-9-17,89,78,75,80,76,73,100,94,64,29.91,29.79,3,0,8,1.40
2014-9-18,84,78,75,79,76,73,100,94,76,29.81,29.75,1,0,8,0.34
2014-9-19,85,78,73,76,74,72,100,90,70,29.85,29.76,1,0,6,1.28
2014-9-20,90,80,74,75,73,70,100,80,54,29.89,29.81,2,0,8,0.01
2014-9-21,91,81,74,75,71,65,98,74,44,29.96,29.87,2,0,8,0.00
2014-9-22,94,80,72,75,71,68,93,77,45,30.00,29.91,6,0,14,0.08
2014-9-23,84,74,63,69,59,53,86,63,35,30.05,29.95,2,0,9,0.00
2014-9-24,84,74,64,65,62,56,86,68,39,30.04,29.97,2,0,8,0.00
2014-9-25,80,73,69,70,67,63,95,81,64,30.05,29.95,5,0,13,0.27
2014-9-26,86,76,68,69,67,63,97,75,50,30.00,29.90,2,0,8,0.00
2014-9-27,82,75,71,72,68,67,88,80,61,29.93,29.85,1,0,6,0.04
2014-9-28,88,78,71,74,70,66,92,77,57,29.90,29.81,2,0,9,0.02
2014-9-29,90,79,71,72,71,68,99,78,52,29.87,29.76,2,0,7,0.01
2014-9-30,90,79,72,75,73,71,99,83,55,29.79,29.69,3,0,9,0.00
2014-10-1,93,82,76,80,75,73,100,81,53,29.76,29.67,2,0,8,0.00
2014-10-2,94,84,78,80,76,73,100,80,52,29.82,29.71,4,1,15,0.00
2014-10-3,83,74,64,78,61,50,100,69,34,30.08,29.81,6,1,17,1.04
2014-10-4,79,68,60,58,50,40,83,56,27,30.12,29.94,2,0,13,0.00
2014-10-5,86,71,55,65,60,52,95,70,44,29.93,29.79,2,0,11,0.00
2014-10-6,88,74,68,75,67,62,96,81,58,29.87,29.76,10,1,17,0.00
2014-10-7,92,78,66,78,71,65,100,82,50,29.92,29.82,1,0,7,0.01
2014-10-8,90,80,70,76,73,70,100,82,57,29.96,29.87,4,0,13,0.01
2014-10-9,91,80,70,74,71,66,100,76,45,29.93,29.82,2,0,9,0.00
2014-10-10,91,82,75,78,74,70,100,78,54,29.87,29.80,3,0,9,0.01
2014-10-11,84,74,66,76,70,62,100,87,61,29.96,29.82,6,1,11,0.05
2014-10-12,88,73,65,76,69,63,94,87,60,29.92,29.70,4,0,12,0.08
2014-10-13,82,73,60,76,66,53,95,80,50,29.91,29.62,7,2,20,0.34
2014-10-14,77,64,54,54,48,38,88,62,27,30.03,29.90,6,1,14,0.00
2014-10-15,85,67,50,59,50,44,99,62,26,30.04,29.91,2,0,6,0.00
2014-10-16,87,70,55,61,58,54,98,68,35,29.95,29.83,2,0,10,0.00
2014-10-17,88,72,59,68,63,58,100,76,46,29.90,29.79,1,0,7,0.00
2014-10-18,87,74,64,69,64,60,100,74,42,29.96,29.86,1,0,8,0.00
2014-10-19,82,72,64,66,63,60,94,76,51,30.01,29.92,2,0,8,0.00
2014-10-20,82,71,61,65,61,58,95,74,46,29.98,29.89,2,0,8,0.00
2014-10-21,83,70,58,60,56,49,92,67,32,29.98,29.88,1,0,7,0.00
2014-10-22,83,70,62,64,60,57,96,72,43,30.03,29.92,2,0,9,0.00
2014-10-23,79,68,61,60,57,54,88,71,42,30.05,29.97,1,0,7,0.00
2014-10-24,82,67,56,60,56,51,93,69,36,30.09,29.99,1,0,6,0.00
2014-10-25,85,70,56,61,58,54,95,71,41,30.09,30.00,0,0,3,0.00
2014-10-26,86,70,55,66,60,54,100,74,39,30.01,29.86,2,0,9,0.00
2014-10-27,86,72,60,65,61,56,98,72,40,29.88,29.80,3,1,13,0.00
2014-10-28,88,74,61,68,63,59,99,73,40,29.97,29.84,1,0,6,0.00
2014-10-29,84,72,64,70,66,61,98,81,56,30.03,29.96,4,0,11,0.00
2014-10-30,82,68,58,62,57,52,88,69,41,30.06,29.95,1,0,5,0.00
2014-10-31,77,67,57,58,49,38,88,58,27,30.19,30.00,6,1,15,0.00
2014-11-1,66,55,45,46,41,35,88,61,33,30.33,30.19,5,0,10,0.00
2014-11-2,74,58,42,56,48,38,90,71,47,30.28,30.14,3,0,11,0.00
2014-11-3,82,69,56,64,59,53,94,73,45,30.14,30.04,4,1,14,0.00
2014-11-4,80,72,67,70,66,63,90,82,61,30.04,29.95,5,0,12,0.04
2014-11-5,72,66,62,68,65,62,100,97,86,30.08,29.94,4,0,9,0.49
2014-11-6,65,62,57,64,60,54,100,92,72,30.18,30.06,4,0,8,0.20
2014-11-7,66,57,50,54,46,40,91,69,41,30.18,29.97,2,0,8,0.00
2014-11-8,75,61,52,54,50,43,92,68,37,30.06,29.92,4,0,10,0.01
2014-11-9,74,58,46,50,45,38,90,67,30,30.06,29.88,1,0,5,0.00
2014-11-10,80,64,45,63,55,44,100,77,46,29.88,29.71,5,1,14,0.00
2014-11-11,69,58,49,68,50,35,99,78,59,30.05,29.72,8,3,20,0.05
2014-11-12,55,48,43,38,34,28,70,59,52,30.24,30.05,7,4,18,0.00
2014-11-13,44,40,35,33,24,16,88,55,39,30.40,30.24,6,4,17,0.52
2014-11-14,46,41,36,32,22,17,63,47,35,30.37,30.20,3,1,11,0.00
2014-11-15,54,49,44,51,39,30,99,71,58,30.20,29.90,4,1,11,0.18
2014-11-16,56,51,42,56,51,37,100,98,84,30.02,29.77,9,2,16,0.28
2014-11-17,50,41,35,37,26,18,85,57,28,30.37,30.02,8,4,20,0.00
2014-11-18,55,42,33,32,25,17,85,57,27,30.46,30.35,3,0,8,0.00
2014-11-19,70,52,32,52,44,29,93,76,50,30.35,30.11,3,0,10,0.00
2014-11-20,73,60,47,62,55,46,100,85,59,30.11,29.96,3,0,15,0.19
2014-11-21,68,64,62,68,64,61,100,98,92,30.06,29.98,4,0,10,0.36
2014-11-22,69,64,60,66,64,60,100,97,85,30.04,29.59,4,1,12,0.19
2014-11-23,80,68,59,64,58,49,100,77,34,29.66,29.44,4,1,12,0.04
2014-11-24,66,56,46,50,38,29,79,54,27,30.06,29.66,6,2,14,0.00
2014-11-25,66,52,44,40,35,25,77,57,21,30.23,30.05,3,0,8,0.00
2014-11-26,72,55,41,44,40,34,88,63,28,30.24,30.08,5,1,12,0.00
2014-11-27,67,54,43,43,37,27,92,59,25,30.41,30.24,3,0,10,0.00
2014-11-28,73,56,40,57,50,38,99,81,57,30.31,30.04,4,0,10,0.00
2014-11-29,79,66,55,66,60,54,100,82,55,30.03,29.93,4,1,15,0.01
2014-11-30,79,70,63,66,63,60,96,80,55,30.05,29.95,4,0,11,0.00
2014-12-1,67,56,44,67,54,37,100,93,75,30.29,30.05,7,2,18,0.06
2014-12-2,55,50,44,49,41,33,84,70,64,30.27,30.12,5,1,12,0.00
2014-12-3,69,59,53,58,55,49,99,85,67,30.17,30.03,1,0,7,0.00
2014-12-4,73,64,56,65,61,56,100,92,70,30.09,29.98,2,0,9,0.01
2014-12-5,81,72,65,74,68,65,100,89,64,30.07,29.96,4,0,12,0.02
2014-12-6,71,64,59,70,62,54,100,91,84,30.23,30.08,5,1,11,0.01
2014-12-7,60,57,53,55,52,49,92,83,77,30.27,30.14,2,0,6,0.00
2014-12-8,66,56,47,51,48,44,91,75,47,30.25,30.15,4,0,8,0.00
2014-12-9,70,54,43,50,46,41,98,76,42,30.27,30.14,1,0,4,0.00
2014-12-10,69,56,43,56,50,42,100,81,55,30.18,30.06,1,0,6,0.01
2014-12-11,74,64,58,60,56,52,96,77,50,30.15,30.06,2,0,9,0.04
2014-12-12,76,66,59,58,56,52,93,73,46,30.21,30.11,2,0,11,0.00
2014-12-13,75,64,57,63,60,56,100,86,59,30.14,30.00,3,0,11,0.01
2014-12-14,77,67,59,67,63,58,100,87,65,30.00,29.81,5,1,14,0.04
2014-12-15,77,69,58,68,60,39,100,77,40,30.06,29.83,4,1,10,0.01
2014-12-16,66,56,49,42,37,33,69,51,34,30.22,30.06,6,1,11,0.00
2014-12-17,65,55,45,58,48,38,95,77,64,30.18,29.97,5,1,10,0.03
2014-12-18,71,64,60,64,61,59,100,91,77,30.02,29.90,2,0,11,0.33
2014-12-19,61,56,52,60,56,51,100,97,90,30.04,29.89,6,2,13,2.25
2014-12-20,55,53,51,51,49,47,95,88,83,30.13,30.03,4,1,9,0.00
2014-12-21,62,55,50,55,50,46,94,82,66,30.08,29.77,2,0,7,0.00
2014-12-22,72,63,56,63,59,55,100,89,70,29.77,29.51,5,1,10,0.00
2014-12-23,60,55,47,60,50,38,100,83,64,29.83,29.48,9,3,18,0.04
2014-12-24,54,46,39,38,36,33,89,68,48,30.05,29.84,7,2,17,0.00
2014-12-25,67,51,34,50,42,33,97,75,43,30.09,29.94,5,1,15,0.00
2014-12-26,72,65,54,67,61,49,97,87,78,29.94,29.82,4,1,14,0.06
2014-12-27,73,60,46,72,58,42,100,94,83,30.11,29.86,8,2,18,0.52
2014-12-28,46,41,40,42,40,39,99,96,84,30.15,30.05,6,2,13,0.85
2014-12-29,50,44,38,47,43,38,100,95,83,30.13,30.00,2,0,8,0.00
2014-12-30,54,48,41,46,43,36,94,84,70,30.35,30.12,5,1,11,0.00
2014-12-31,45,43,40,36,35,34,83,73,67,30.40,30.25,4,2,10,0.00
2015-1-1,46,44,41,46,40,34,100,89,69,30.26,30.00,3,1,11,0.12
2015-1-2,52,49,46,52,49,46,100,100,100,30.01,29.80,2,0,8,0.30